Mont Saint Michel — FNMT — position and weather

sailwx.info

Track history (hours):
 
Tides and Currents Weather Stations Pressure Air Temp Water Temp Dewpoint Dewpoint Depression Visibility Wind Speed Wind Dir Waves Ship Positions

Mont Saint Michel

Last reported at 2019-Feb-24 00:00 UTC. Time now 2019-Feb-24 00:16 UTC.
Position N 49°38' W 000°21'.

Length 173 m; beam 29 m.

Type: Ship. MMSI: 227023100.

Date/timePositionNaut miles runAvg speedWind from/ knotsBaromVisibWave heightAir tempDewpointWater temp
2019-Feb-24 00:00N 49°38' W 000°21'611.9
2019-Feb-23 23:31N 49°32' W 000°19'611.6
2019-Feb-23 23:01N 49°26' W 000°17'510.9
2019-Feb-23 22:30N 49°21' W 000°15'4 7.3
2019-Feb-23 22:01N 49°17' W 000°15'0 0.0
2019-Feb-23 21:31N 49°17' W 000°15'0 0.0
2019-Feb-23 21:01N 49°17' W 000°15'0 0.0
2019-Feb-23 20:30N 49°17' W 000°15'3 6.6
2019-Feb-23 20:00N 49°21' W 000°14'918.0
2019-Feb-23 19:30N 49°29' W 000°19'918.3
2019-Feb-23 19:00N 49°37' W 000°25'1019.1
2019-Feb-23 18:30N 49°46' W 000°31'1020.0
2019-Feb-23 18:00N 49°56' W 000°34'1019.5
2019-Feb-23 17:30N 50°05' W 000°40'1019.6
2019-Feb-23 17:00N 50°14' W 000°46'1020.1
2019-Feb-23 16:30N 50°24' W 000°51'1019.8
2019-Feb-23 16:00N 50°33' W 000°56'918.9
2019-Feb-23 15:30N 50°42' W 001°00'815.0
2019-Feb-23 15:00N 50°48' W 001°07'1 1.7
2019-Feb-23 14:30N 50°49' W 001°06'0 0.0
2019-Feb-23 14:00N 50°49' W 001°06'0 0.0
2019-Feb-23 13:30N 50°49' W 001°06'1 2.6
2019-Feb-23 13:00N 50°48' W 001°07'816.4
2019-Feb-23 12:30N 50°40' W 001°00'1020.5
2019-Feb-23 12:00N 50°31' W 000°54'1020.3
2019-Feb-23 11:31N 50°21' W 000°49'1020.2
2019-Feb-23 11:00N 50°12' W 000°44'1019.8
2019-Feb-23 10:30N 50°02' W 000°39'1019.5
2019-Feb-23 10:00N 49°53' W 000°34'1019.3
2019-Feb-23 09:30N 49°44' W 000°29'917.9
2019-Feb-23 09:01N 49°36' W 000°24'1020.5
2019-Feb-23 08:30N 49°26' W 000°18'815.8
2019-Feb-23 08:00N 49°19' W 000°15'1 2.7
2019-Feb-23 07:30N 49°17' W 000°15'0 0.0
2019-Feb-23 07:00N 49°17' W 000°15'0 0.0
2019-Feb-23 06:30N 49°17' W 000°15'0 0.0
2019-Feb-23 06:00N 49°17' W 000°15'0 1.0
2019-Feb-23 05:30N 49°18' W 000°15'713.3
2019-Feb-23 05:01N 49°24' W 000°13'611.6
2019-Feb-23 04:31N 49°29' W 000°19'713.3
2019-Feb-23 04:01N 49°35' W 000°22'713.9
2019-Feb-23 03:30N 49°42' W 000°25'714.0
2019-Feb-23 03:00N 49°48' W 000°30'714.7
2019-Feb-23 02:30N 49°56' W 000°31'715.0
2019-Feb-23 02:01N 50°03' W 000°35'714.7
2019-Feb-23 01:30N 50°10' W 000°39'815.1
2019-Feb-23 01:00N 50°17' W 000°43'714.6
2019-Feb-23 00:31N 50°23' W 000°48'714.6
2019-Feb-23 00:00N 50°30' W 000°52'714.5
2019-Feb-22 23:31N 50°37' W 000°56'713.2
2019-Feb-22 23:00N 50°43' W 000°60'612.3
2019-Feb-22 22:30N 50°47' W 001°07'1 2.8
2019-Feb-22 22:00N 50°49' W 001°06'0 0.0
2019-Feb-22 21:30N 50°49' W 001°06'0 0.0
2019-Feb-22 21:00N 50°49' W 001°06'0 0.0
2019-Feb-22 20:31N 50°49' W 001°06'0 0.0
2019-Feb-22 20:01N 50°49' W 001°06'0 0.0
2019-Feb-22 19:30N 50°49' W 001°06'2 3.5
2019-Feb-22 19:01N 50°47' W 001°06'510.5
2019-Feb-22 18:31N 50°43' W 001°00'816.3
2019-Feb-22 18:01N 50°35' W 000°56'917.3
2019-Feb-22 17:30N 50°27' W 000°51'816.3
2019-Feb-22 17:00N 50°20' W 000°48'816.8
2019-Feb-22 16:31N 50°12' W 000°43'917.2
2019-Feb-22 16:01N 50°04' W 000°39'917.5
2019-Feb-22 15:31N 49°55' W 000°34'917.7
2019-Feb-22 15:01N 49°47' W 000°29'917.5
2019-Feb-22 14:30N 49°39' W 000°24'917.3
2019-Feb-22 14:00N 49°31' W 000°19'917.1
2019-Feb-22 13:31N 49°23' W 000°16'510.7
2019-Feb-22 13:00N 49°17' W 000°15'0 0.0
2019-Feb-22 12:30N 49°17' W 000°15'0 0.0
2019-Feb-22 12:00N 49°17' W 000°15'0 0.0
2019-Feb-22 11:30N 49°17' W 000°15'0 0.0
2019-Feb-22 11:00N 49°17' W 000°15'0 0.0
2019-Feb-22 10:30N 49°17' W 000°15'0 0.0
2019-Feb-22 10:00N 49°17' W 000°15'0 0.0
2019-Feb-22 09:30N 49°17' W 000°15'0 0.0
2019-Feb-22 09:00N 49°17' W 000°15'0 0.0
2019-Feb-22 08:30N 49°17' W 000°15'0 0.0
2019-Feb-22 08:00N 49°17' W 000°15'0 0.0
2019-Feb-22 07:30N 49°17' W 000°15'0 0.0
2019-Feb-22 07:00N 49°17' W 000°15'0 0.0
2019-Feb-22 06:30N 49°17' W 000°15'1 2.3
2019-Feb-22 06:00N 49°18' W 000°15'713.7
2019-Feb-22 05:30N 49°25' W 000°16'713.9
2019-Feb-22 05:00N 49°32' W 000°20'510.5
2019-Feb-22 04:30N 49°37' W 000°22'510.5
2019-Feb-22 04:00N 49°42' W 000°24'713.8
2019-Feb-22 03:31N 49°48' W 000°28'714.3
2019-Feb-22 03:01N 49°55' W 000°32'714.5
2019-Feb-22 02:31N 50°02' W 000°35'714.8
2019-Feb-22 02:01N 50°09' W 000°38'815.0
2019-Feb-22 01:30N 50°16' W 000°42'815.2
2019-Feb-22 01:01N 50°23' W 000°47'815.5
2019-Feb-22 00:31N 50°30' W 000°52'815.2
2019-Feb-22 00:01N 50°37' W 000°57'713.6
2019-Feb-21 23:31N 50°43' W 001°01'611.4
2019-Feb-21 23:00N 50°48' W 001°07'1 2.1
2019-Feb-21 22:30N 50°49' W 001°06'0 0.0
2019-Feb-21 22:00N 50°49' W 001°06'0 0.0
2019-Feb-21 21:30N 50°49' W 001°06'0 0.7
2019-Feb-21 21:00N 50°49' W 001°06'510.8
2019-Feb-21 20:30N 50°44' W 001°03'816.5
2019-Feb-21 20:00N 50°36' W 000°57'918.3
2019-Feb-21 19:30N 50°28' W 000°51'1019.2
2019-Feb-21 19:00N 50°19' W 000°48'1019.3
2019-Feb-21 18:30N 50°10' W 000°42'1019.6
2019-Feb-21 18:00N 50°01' W 000°36'1019.5
2019-Feb-21 17:30N 49°51' W 000°33'1019.7
2019-Feb-21 17:00N 49°42' W 000°28'1019.8
2019-Feb-21 16:30N 49°33' W 000°22'1019.9
2019-Feb-21 16:00N 49°24' W 000°16'612.5
2019-Feb-21 15:31N 49°17' W 000°15'0 0.0
2019-Feb-21 15:00N 49°17' W 000°15'0 0.0
2019-Feb-21 14:31N 49°17' W 000°15'0 0.0
2019-Feb-21 14:01N 49°17' W 000°15'2 5.0
2019-Feb-21 13:31N 49°20' W 000°14'917.7
2019-Feb-21 13:01N 49°28' W 000°19'918.7
2019-Feb-21 12:31N 49°37' W 000°23'918.8
2019-Feb-21 12:00N 49°46' W 000°28'919.1
2019-Feb-21 11:31N 49°55' W 000°32'1019.1
2019-Feb-21 11:01N 50°04' W 000°36'1019.0
2019-Feb-21 10:30N 50°13' W 000°41'918.6
2019-Feb-21 10:01N 50°22' W 000°46'918.8
2019-Feb-21 09:31N 50°31' W 000°52'918.8
2019-Feb-21 09:01N 50°39' W 000°58'817.0
2019-Feb-21 08:31N 50°46' W 001°06'2 4.9
2019-Feb-21 08:00N 50°49' W 001°06'0 0.0
2019-Feb-21 07:31N 50°49' W 001°06'0 0.0
2019-Feb-21 07:01N 50°49' W 001°06'1 1.4
2019-Feb-21 06:31N 50°48' W 001°07'510.7
2019-Feb-21 06:00N 50°44' W 001°03'611.7
2019-Feb-21 05:30N 50°39' W 000°58'611.6
2019-Feb-21 05:01N 50°34' W 000°53'611.7
2019-Feb-21 04:31N 50°29' W 000°49'611.6
2019-Feb-21 04:00N 50°24' W 000°43'6 8.8
2019-Feb-21 03:20N 50°18' W 000°45'411.8
2019-Feb-21 03:00N 50°15' W 000°42'612.1
2019-Feb-21 02:31N 50°09' W 000°38'612.2
2019-Feb-21 02:01N 50°04' W 000°34'612.3
2019-Feb-21 01:31N 49°58' W 000°30'612.1
2019-Feb-21 01:01N 49°53' W 000°26'612.1
2019-Feb-21 00:30N 49°47' W 000°23'611.9
2019-Feb-21 00:01N 49°41' W 000°22'611.8
2019-Feb-20 23:31N 49°35' W 000°20'611.8
2019-Feb-20 23:00N 49°29' W 000°18'611.7
2019-Feb-20 22:31N 49°24' W 000°16'611.8
2019-Feb-20 22:01N 49°18' W 000°15'1 1.3
2019-Feb-20 21:30N 49°17' W 000°15'0 0.0
2019-Feb-20 21:00N 49°17' W 000°15'0 0.0
2019-Feb-20 20:30N 49°17' W 000°15'2 5.0
2019-Feb-20 20:01N 49°20' W 000°14'917.2
2019-Feb-20 19:30N 49°28' W 000°17'917.5
2019-Feb-20 19:01N 49°36' W 000°22'1019.9
2019-Feb-20 18:30N 49°46' W 000°28'1019.5
2019-Feb-20 18:01N 49°54' W 000°34'918.9
2019-Feb-20 17:31N 50°03' W 000°40'918.6
2019-Feb-20 17:01N 50°12' W 000°44'918.9
2019-Feb-20 16:31N 50°21' W 000°46'917.9
2019-Feb-20 16:01N 50°29' W 000°52'918.8
2019-Feb-20 15:31N 50°38' W 000°58'918.7
2019-Feb-20 15:01N 50°46' W 001°05'3 5.2
2019-Feb-20 14:30N 50°49' W 001°06'0 0.0
2019-Feb-20 14:00N 50°49' W 001°06'0 0.0
2019-Feb-20 13:30N 50°49' W 001°06'0 0.1
2019-Feb-20 13:00N 50°49' W 001°06'4 7.4
2019-Feb-20 12:30N 50°45' W 001°05'918.3
2019-Feb-20 12:00N 50°37' W 000°57'1019.3
2019-Feb-20 11:30N 50°29' W 000°49'1019.1
2019-Feb-20 11:00N 50°20' W 000°43'1019.0
2019-Feb-20 10:30N 50°12' W 000°37'918.8
2019-Feb-20 10:00N 50°03' W 000°32'1019.4
2019-Feb-20 09:30N 49°54' W 000°28'1020.6
2019-Feb-20 09:00N 49°44' W 000°22'1020.5
2019-Feb-20 08:30N 49°34' W 000°19'1019.8
2019-Feb-20 08:00N 49°24' W 000°16'713.9
2019-Feb-20 07:30N 49°17' W 000°15'0 0.0
2019-Feb-20 07:00N 49°17' W 000°15'0 0.0
2019-Feb-20 06:30N 49°17' W 000°15'0 0.0
2019-Feb-20 06:00N 49°17' W 000°15'0 0.3
2019-Feb-20 05:30N 49°17' W 000°15'4 8.9
2019-Feb-20 05:00N 49°22' W 000°15'917.2
2019-Feb-20 04:30N 49°30' W 000°19'918.2
2019-Feb-20 04:00N 49°39' W 000°23'1817.8
2019-Feb-20 03:00N 49°55' W 000°33'815.7
2019-Feb-20 02:30N 50°03' W 000°37'815.1
2019-Feb-20 02:00N 50°10' W 000°41'815.2
2019-Feb-20 01:30N 50°17' W 000°44'815.6
2019-Feb-20 01:00N 50°24' W 000°49'815.3
2019-Feb-20 00:30N 50°31' W 000°53'815.3
2019-Feb-20 00:00N 50°38' W 000°58'714.3
2019-Feb-19 23:31N 50°44' W 001°04'5 9.1
2019-Feb-19 23:00N 50°49' W 001°06'0 0.4
2019-Feb-19 22:30N 50°49' W 001°06'0 0.0
2019-Feb-19 22:00N 50°49' W 001°06'0 0.0
2019-Feb-19 21:30N 50°49' W 001°06'0 0.9
2019-Feb-19 21:00N 50°49' W 001°07'611.3
2019-Feb-19 20:31N 50°44' W 001°03'918.1
2019-Feb-19 20:00N 50°35' W 000°56'918.0
2019-Feb-19 19:30N 50°27' W 000°50'1118.8
2019-Feb-19 18:56N 50°17' W 000°45'819.5
2019-Feb-19 18:30N 50°09' W 000°40'1020.2
2019-Feb-19 18:01N 49°60' W 000°34'1020.3
2019-Feb-19 17:31N 49°50' W 000°30'1020.3
2019-Feb-19 17:01N 49°40' W 000°26'1020.6
2019-Feb-19 16:31N 49°31' W 000°20'1020.5
2019-Feb-19 16:01N 49°21' W 000°15'4 7.4
2019-Feb-19 15:30N 49°17' W 000°15'0 0.0
2019-Feb-19 15:00N 49°17' W 000°15'0 0.0
2019-Feb-19 14:30N 49°17' W 000°15'0 0.0
2019-Feb-19 14:00N 49°17' W 000°15'3 6.1
2019-Feb-19 13:31N 49°20' W 000°14'1019.8
2019-Feb-19 13:01N 49°30' W 000°17'1020.4
2019-Feb-19 12:31N 49°40' W 000°21'1020.4
2019-Feb-19 12:01N 49°50' W 000°27'1020.6
2019-Feb-19 11:31N 49°59' W 000°33'1020.8
2019-Feb-19 11:01N 50°08' W 000°40'1020.2
2019-Feb-19 10:31N 50°17' W 000°47'1019.2
2019-Feb-19 10:01N 50°26' W 000°54'918.6
2019-Feb-19 09:31N 50°35' W 000°57'918.0
2019-Feb-19 09:01N 50°43' W 001°03'611.6
2019-Feb-19 08:31N 50°49' W 001°07'0 0.9
2019-Feb-19 08:01N 50°49' W 001°06'0 0.0
2019-Feb-19 07:31N 50°49' W 001°06'0 0.0
2019-Feb-19 07:01N 50°49' W 001°06'0 0.1
2019-Feb-19 06:31N 50°49' W 001°06'5 9.1
2019-Feb-19 06:01N 50°44' W 001°04'713.4
2019-Feb-19 05:30N 50°39' W 000°58'815.5
2019-Feb-19 05:00N 50°32' W 000°54'815.8
2019-Feb-19 04:30N 50°24' W 000°50'815.7
2019-Feb-19 04:00N 50°17' W 000°46'815.8
2019-Feb-19 03:30N 50°09' W 000°42'815.4
2019-Feb-19 03:00N 50°02' W 000°38'816.2
2019-Feb-19 02:30N 49°54' W 000°35'713.5
2019-Feb-19 02:00N 49°47' W 000°34'3 5.7
2019-Feb-19 01:30N 49°47' W 000°38'5 9.5
2019-Feb-19 01:00N 49°50' W 000°32'611.5
2019-Feb-19 00:30N 49°44' W 000°29'612.0
2019-Feb-19 00:00N 49°39' W 000°26'611.9
2019-Feb-18 23:30N 49°33' W 000°22'611.6
2019-Feb-18 23:00N 49°28' W 000°19'611.6
2019-Feb-18 22:30N 49°22' W 000°15'510.2
2019-Feb-18 22:00N 49°17' W 000°15'0 0.1
2019-Feb-18 21:30N 49°17' W 000°15'0 0.0
2019-Feb-18 21:00N 49°17' W 000°15'0 0.0
2019-Feb-18 20:30N 49°17' W 000°15'3 6.2
2019-Feb-18 20:00N 49°20' W 000°14'918.1
2019-Feb-18 19:30N 49°29' W 000°19'917.8
2019-Feb-18 19:00N 49°37' W 000°24'918.8
2019-Feb-18 18:30N 49°46' W 000°30'918.9
2019-Feb-18 18:00N 49°55' W 000°35'918.4
2019-Feb-18 17:30N 50°04' W 000°39'1019.1
2019-Feb-18 17:00N 50°13' W 000°44'1019.0
2019-Feb-18 16:30N 50°22' W 000°49'919.0
2019-Feb-18 16:01N 50°30' W 000°54'918.2
2019-Feb-18 15:30N 50°39' W 000°58'816.0
2019-Feb-18 15:00N 50°46' W 001°05'3 6.1
2019-Feb-18 14:30N 50°49' W 001°06'0 0.0
2019-Feb-18 14:00N 50°49' W 001°06'0 0.0
2019-Feb-18 13:30N 50°49' W 001°06'1 1.1
2019-Feb-18 13:00N 50°49' W 001°07'612.6
2019-Feb-18 12:30N 50°43' W 001°02'918.0
2019-Feb-18 12:00N 50°35' W 000°56'1019.8
2019-Feb-18 11:30N 50°26' W 000°47'1019.8
2019-Feb-18 11:00N 50°17' W 000°42'1019.8
2019-Feb-18 10:30N 50°08' W 000°36'1019.5
2019-Feb-18 10:00N 49°59' W 000°31'1019.5
2019-Feb-18 09:30N 49°49' W 000°27'1019.6
2019-Feb-18 09:00N 49°40' W 000°23'1019.7
2019-Feb-18 08:30N 49°31' W 000°19'1019.4
2019-Feb-18 08:00N 49°21' W 000°15'4 7.8
2019-Feb-18 07:30N 49°17' W 000°15'0 0.0
2019-Feb-18 07:00N 49°17' W 000°15'0 0.0
2019-Feb-18 06:30N 49°17' W 000°15'0 0.0
2019-Feb-18 06:00N 49°17' W 000°15'0 0.2
2019-Feb-18 05:31N 49°17' W 000°15'815.2
2019-Feb-18 05:00N 49°25' W 000°14'815.3
2019-Feb-18 04:30N 49°32' W 000°18'714.9
2019-Feb-18 04:00N 49°39' W 000°24'815.0
2019-Feb-18 03:30N 49°45' W 000°28'714.7
2019-Feb-18 03:00N 49°52' W 000°32'815.0
2019-Feb-18 02:30N 49°59' W 000°37'815.2
2019-Feb-18 02:00N 50°06' W 000°40'815.1
2019-Feb-18 01:30N 50°14' W 000°45'815.3
2019-Feb-18 01:00N 50°21' W 000°49'815.4
2019-Feb-18 00:30N 50°28' W 000°53'714.9
2019-Feb-18 00:00N 50°35' W 000°57'715.0
2019-Feb-17 23:30N 50°42' W 001°01'713.0
2019-Feb-17 23:00N 50°47' W 001°07'1 2.7
2019-Feb-17 22:30N 50°49' W 001°06'0 0.0
2019-Feb-17 22:00N 50°49' W 001°06'0 0.0
2019-Feb-17 21:30N 50°49' W 001°06'1 1.6
2019-Feb-17 21:00N 50°48' W 001°07'511.0
2019-Feb-17 20:31N 50°44' W 001°02'917.3
2019-Feb-17 20:00N 50°36' W 000°57'917.6
2019-Feb-17 19:30N 50°27' W 000°52'1120.0
2019-Feb-17 18:56N 50°16' W 000°49'819.5
2019-Feb-17 18:30N 50°08' W 000°45'1019.3
2019-Feb-17 18:00N 49°59' W 000°39'1019.2
2019-Feb-17 17:30N 49°51' W 000°32'1019.4
2019-Feb-17 17:00N 49°42' W 000°26'1020.1
2019-Feb-17 16:30N 49°33' W 000°20'1020.1
2019-Feb-17 16:00N 49°23' W 000°16'611.8
2019-Feb-17 15:30N 49°17' W 000°15'0 0.1
2019-Feb-17 15:00N 49°17' W 000°15'0 0.0
2019-Feb-17 14:30N 49°17' W 000°15'0 0.0
2019-Feb-17 14:00N 49°17' W 000°15'3 5.8
2019-Feb-17 13:30N 49°20' W 000°14'917.8
2019-Feb-17 13:00N 49°29' W 000°16'917.7
2019-Feb-17 12:30N 49°37' W 000°22'918.3
2019-Feb-17 12:00N 49°45' W 000°27'1019.7
2019-Feb-17 11:30N 49°54' W 000°34'1019.8
2019-Feb-17 11:00N 50°04' W 000°40'1020.0
2019-Feb-17 10:30N 50°13' W 000°45'1020.3
2019-Feb-17 10:00N 50°22' W 000°51'1020.3
2019-Feb-17 09:30N 50°32' W 000°57'1020.2
2019-Feb-17 09:01N 50°41' W 001°01'714.7
2019-Feb-17 08:30N 50°48' W 001°07'1 2.0
2019-Feb-17 08:00N 50°49' W 001°06'0 0.0
2019-Feb-17 07:30N 50°49' W 001°06'0 0.0
2019-Feb-17 07:00N 50°49' W 001°06'0 0.1
2019-Feb-17 06:30N 50°49' W 001°06'4 8.9
2019-Feb-17 06:01N 50°44' W 001°04'815.5
2019-Feb-17 05:30N 50°38' W 000°57'714.9
2019-Feb-17 05:00N 50°31' W 000°52'510.9
2019-Feb-17 04:30N 50°26' W 000°48'611.5
2019-Feb-17 04:00N 50°21' W 000°44'611.6
2019-Feb-17 03:30N 50°16' W 000°40'611.6
2019-Feb-17 03:00N 50°11' W 000°37'611.8
2019-Feb-17 02:30N 50°05' W 000°38'611.6
2019-Feb-17 02:00N 49°59' W 000°36'612.0
2019-Feb-17 01:30N 49°54' W 000°33'612.2
2019-Feb-17 01:00N 49°48' W 000°30'612.3
2019-Feb-17 00:30N 49°42' W 000°27'612.1
2019-Feb-17 00:00N 49°36' W 000°23'612.3
2019-Feb-16 23:30N 49°31' W 000°20'612.4
2019-Feb-16 23:00N 49°25' W 000°16'611.6
2019-Feb-16 22:30N 49°19' W 000°15'2 3.9
2019-Feb-16 22:00N 49°17' W 000°15'0 0.0
2019-Feb-16 21:30N 49°17' W 000°15'0 0.0
2019-Feb-16 21:00N 49°17' W 000°15'0 0.0
2019-Feb-16 20:30N 49°17' W 000°15'3 6.7
2019-Feb-16 20:00N 49°21' W 000°14'919.0
2019-Feb-16 19:30N 49°30' W 000°19'918.7
2019-Feb-16 19:00N 49°38' W 000°24'918.2
2019-Feb-16 18:30N 49°47' W 000°29'918.6
2019-Feb-16 18:00N 49°56' W 000°34'1020.8
2019-Feb-16 17:30N 50°06' W 000°40'1120.8
2019-Feb-16 16:58N 50°16' W 000°45'920.4
2019-Feb-16 16:30N 50°25' W 000°49'1020.6
2019-Feb-16 16:00N 50°35' W 000°55'919.0
2019-Feb-16 15:30N 50°43' W 001°01'612.2
2019-Feb-16 15:00N 50°49' W 001°06'0 0.6
2019-Feb-16 14:30N 50°49' W 001°06'0 0.0
2019-Feb-16 14:00N 50°49' W 001°06'0 0.0
2019-Feb-16 13:30N 50°49' W 001°06'0 0.7
2019-Feb-16 13:00N 50°49' W 001°06'611.3
2019-Feb-16 12:30N 50°44' W 001°02'816.1
2019-Feb-16 12:00N 50°36' W 000°57'1019.4
2019-Feb-16 11:30N 50°27' W 000°51'1019.6
2019-Feb-16 10:59N 50°18' W 000°46'1020.2
2019-Feb-16 10:30N 50°09' W 000°41'1020.5
2019-Feb-16 10:00N 49°59' W 000°35'1020.4
2019-Feb-16 09:30N 49°50' W 000°29'1020.3
2019-Feb-16 09:00N 49°40' W 000°23'1019.7
2019-Feb-16 08:30N 49°31' W 000°18'1019.5
2019-Feb-16 08:00N 49°21' W 000°14'4 8.2
2019-Feb-16 07:30N 49°17' W 000°15'0 0.0
2019-Feb-16 07:00N 49°17' W 000°15'0 0.0
2019-Feb-16 06:30N 49°17' W 000°15'0 0.0
2019-Feb-16 06:00N 49°17' W 000°15'0 0.2
2019-Feb-16 05:30N 49°17' W 000°15'714.7
2019-Feb-16 05:01N 49°25' W 000°15'815.4
2019-Feb-16 04:30N 49°32' W 000°19'611.6
2019-Feb-16 04:00N 49°37' W 000°21'611.3
2019-Feb-16 03:31N 49°43' W 000°24'611.6
2019-Feb-16 03:00N 49°48' W 000°26'611.7
2019-Feb-16 02:30N 49°54' W 000°30'611.4
2019-Feb-16 02:01N 49°59' W 000°33'714.7
2019-Feb-16 01:30N 50°05' W 000°39'815.5
2019-Feb-16 01:01N 50°12' W 000°45'815.3
2019-Feb-16 00:30N 50°19' W 000°51'815.1
2019-Feb-16 00:00N 50°26' W 000°55'815.3
2019-Feb-15 23:31N 50°33' W 000°57'815.9
2019-Feb-15 23:01N 50°41' W 001°00'714.0
2019-Feb-15 22:30N 50°47' W 001°06'2 3.5
2019-Feb-15 22:00N 50°49' W 001°06'0 0.0
2019-Feb-15 21:30N 50°49' W 001°06'0 0.0
2019-Feb-15 21:00N 50°49' W 001°06'0 0.0
2019-Feb-15 20:30N 50°49' W 001°06'0 0.0
2019-Feb-15 20:00N 50°49' W 001°06'0 0.0
2019-Feb-15 19:30N 50°49' W 001°06'1 1.1
2019-Feb-15 19:01N 50°49' W 001°07'612.4
2019-Feb-15 18:30N 50°43' W 001°03'816.8
2019-Feb-15 18:01N 50°35' W 000°58'917.0
2019-Feb-15 17:31N 50°27' W 000°54'816.9
2019-Feb-15 17:01N 50°19' W 000°49'816.5
2019-Feb-15 16:30N 50°12' W 000°43'816.9
2019-Feb-15 16:01N 50°04' W 000°38'816.9
2019-Feb-15 15:30N 49°56' W 000°33'816.9
2019-Feb-15 15:00N 49°48' W 000°29'816.6
2019-Feb-15 14:30N 49°41' W 000°23'816.9
2019-Feb-15 14:00N 49°33' W 000°19'817.0
2019-Feb-15 13:30N 49°24' W 000°17'714.1
2019-Feb-15 13:00N 49°17' W 000°15'0 0.1
2019-Feb-15 12:30N 49°17' W 000°15'0 0.0
2019-Feb-15 12:00N 49°17' W 000°15'0 0.0
2019-Feb-15 11:30N 49°17' W 000°15'0 0.0
2019-Feb-15 11:00N 49°17' W 000°15'0 0.0
2019-Feb-15 10:30N 49°17' W 000°15'0 0.0
2019-Feb-15 10:00N 49°17' W 000°15'0 0.0
2019-Feb-15 09:30N 49°17' W 000°15'0 0.0
2019-Feb-15 09:00N 49°17' W 000°15'0 0.0
2019-Feb-15 08:30N 49°17' W 000°15'0 0.0
2019-Feb-15 08:00N 49°17' W 000°15'0 0.0
2019-Feb-15 07:30N 49°17' W 000°15'0 0.0
2019-Feb-15 07:00N 49°17' W 000°15'0 0.0
2019-Feb-15 06:30N 49°17' W 000°15'3 6.8
2019-Feb-15 06:00N 49°21' W 000°14'815.9
2019-Feb-15 05:31N 49°28' W 000°19'815.5
2019-Feb-15 05:01N 49°35' W 000°25'815.7
2019-Feb-15 04:31N 49°43' W 000°26'815.7
2019-Feb-15 04:00N 49°50' W 000°31'713.9
2019-Feb-15 03:30N 49°56' W 000°35'611.7
2019-Feb-15 03:00N 50°02' W 000°38'611.7
2019-Feb-15 02:30N 50°07' W 000°41'611.3
2019-Feb-15 02:00N 50°13' W 000°44'611.2
2019-Feb-15 01:30N 50°18' W 000°45'611.2
2019-Feb-15 01:00N 50°23' W 000°49'613.0
2019-Feb-15 00:30N 50°29' W 000°53'815.9
2019-Feb-15 00:00N 50°37' W 000°57'714.3
2019-Feb-14 23:30N 50°43' W 001°01'611.4
2019-Feb-14 23:01N 50°48' W 001°07'1 2.2
2019-Feb-14 22:30N 50°49' W 001°06'0 0.0
2019-Feb-14 22:01N 50°49' W 001°06'0 0.0
2019-Feb-14 21:31N 50°49' W 001°06'0 0.1
2019-Feb-14 21:00N 50°49' W 001°06'3 5.7
2019-Feb-14 20:30N 50°46' W 001°05'917.1
2019-Feb-14 20:00N 50°38' W 000°59'918.3
2019-Feb-14 19:31N 50°30' W 000°54'918.6
2019-Feb-14 19:01N 50°21' W 000°49'1020.2
2019-Feb-14 18:30N 50°11' W 000°44'1020.5
2019-Feb-14 18:01N 50°02' W 000°39'1020.8
2019-Feb-14 17:31N 49°52' W 000°33'1020.6
2019-Feb-14 17:00N 49°42' W 000°27'1020.7
2019-Feb-14 16:30N 49°33' W 000°21'1020.6
2019-Feb-14 16:01N 49°23' W 000°16'611.6
2019-Feb-14 15:31N 49°17' W 000°15'0 0.0
2019-Feb-14 15:00N 49°17' W 000°15'0 0.0
2019-Feb-14 14:31N 49°17' W 000°15'0 0.0
2019-Feb-14 14:01N 49°17' W 000°15'4 8.1
2019-Feb-14 13:30N 49°21' W 000°14'1020.0
2019-Feb-14 13:00N 49°31' W 000°18'1019.1
2019-Feb-14 12:30N 49°40' W 000°24'1019.4
2019-Feb-14 12:00N 49°48' W 000°31'1019.2
2019-Feb-14 11:30N 49°57' W 000°37'919.0
2019-Feb-14 11:00N 50°06' W 000°42'1019.7
2019-Feb-14 10:30N 50°15' W 000°48'1021.0
2019-Feb-14 10:00N 50°25' W 000°53'1020.7
2019-Feb-14 09:30N 50°35' W 000°57'918.3
2019-Feb-14 09:00N 50°43' W 001°03'611.0
2019-Feb-14 08:30N 50°49' W 001°06'0 0.0
2019-Feb-14 08:01N 50°49' W 001°06'0 0.0
2019-Feb-14 07:30N 50°49' W 001°06'0 0.1
2019-Feb-14 07:00N 50°49' W 001°06'3 5.3
2019-Feb-14 06:30N 50°46' W 001°05'3 6.0
2019-Feb-14 06:00N 50°43' W 001°03'714.2
2019-Feb-14 05:30N 50°37' W 000°59'611.7
2019-Feb-14 05:00N 50°32' W 000°55'611.5
2019-Feb-14 04:30N 50°27' W 000°49'611.6
2019-Feb-14 04:00N 50°22' W 000°45'1211.6
2019-Feb-14 03:00N 50°11' W 000°40'611.9
2019-Feb-14 02:30N 50°05' W 000°39'611.4
2019-Feb-14 02:00N 49°59' W 000°36'611.4
2019-Feb-14 01:30N 49°54' W 000°33'611.3
2019-Feb-14 01:00N 49°49' W 000°30'611.4
2019-Feb-14 00:30N 49°43' W 000°27'  
Track history (hours):
 
Tides and Currents Weather Stations Pressure Air Temp Water Temp Dewpoint Dewpoint Depression Visibility Wind Speed Wind Dir Waves Ship Positions

Mont Saint Michel

Last reported at 2019-Feb-24 00:00 UTC. Time now 2019-Feb-24 00:16 UTC.
Position N 49°38' W 000°21'.

Length 173 m; beam 29 m.

Type: Ship. MMSI: 227023100.

Date/timePositionNaut miles runAvg speedWind from/ knotsBaromVisibWave heightAir tempDewpointWater temp
2019-Feb-24 00:00N 49°38' W 000°21'611.9
2019-Feb-23 23:31N 49°32' W 000°19'611.6
2019-Feb-23 23:01N 49°26' W 000°17'510.9
2019-Feb-23 22:30N 49°21' W 000°15'4 7.3
2019-Feb-23 22:01N 49°17' W 000°15'0 0.0
2019-Feb-23 21:31N 49°17' W 000°15'0 0.0
2019-Feb-23 21:01N 49°17' W 000°15'0 0.0
2019-Feb-23 20:30N 49°17' W 000°15'3 6.6
2019-Feb-23 20:00N 49°21' W 000°14'918.0
2019-Feb-23 19:30N 49°29' W 000°19'918.3
2019-Feb-23 19:00N 49°37' W 000°25'1019.1
2019-Feb-23 18:30N 49°46' W 000°31'1020.0
2019-Feb-23 18:00N 49°56' W 000°34'1019.5
2019-Feb-23 17:30N 50°05' W 000°40'1019.6
2019-Feb-23 17:00N 50°14' W 000°46'1020.1
2019-Feb-23 16:30N 50°24' W 000°51'1019.8
2019-Feb-23 16:00N 50°33' W 000°56'918.9
2019-Feb-23 15:30N 50°42' W 001°00'815.0
2019-Feb-23 15:00N 50°48' W 001°07'1 1.7
2019-Feb-23 14:30N 50°49' W 001°06'0 0.0
2019-Feb-23 14:00N 50°49' W 001°06'0 0.0
2019-Feb-23 13:30N 50°49' W 001°06'1 2.6
2019-Feb-23 13:00N 50°48' W 001°07'816.4
2019-Feb-23 12:30N 50°40' W 001°00'1020.5
2019-Feb-23 12:00N 50°31' W 000°54'1020.3
2019-Feb-23 11:31N 50°21' W 000°49'1020.2
2019-Feb-23 11:00N 50°12' W 000°44'1019.8
2019-Feb-23 10:30N 50°02' W 000°39'1019.5
2019-Feb-23 10:00N 49°53' W 000°34'1019.3
2019-Feb-23 09:30N 49°44' W 000°29'917.9
2019-Feb-23 09:01N 49°36' W 000°24'1020.5
2019-Feb-23 08:30N 49°26' W 000°18'815.8
2019-Feb-23 08:00N 49°19' W 000°15'1 2.7
2019-Feb-23 07:30N 49°17' W 000°15'0 0.0
2019-Feb-23 07:00N 49°17' W 000°15'0 0.0
2019-Feb-23 06:30N 49°17' W 000°15'0 0.0
2019-Feb-23 06:00N 49°17' W 000°15'0 1.0
2019-Feb-23 05:30N 49°18' W 000°15'713.3
2019-Feb-23 05:01N 49°24' W 000°13'611.6
2019-Feb-23 04:31N 49°29' W 000°19'713.3
2019-Feb-23 04:01N 49°35' W 000°22'713.9
2019-Feb-23 03:30N 49°42' W 000°25'714.0
2019-Feb-23 03:00N 49°48' W 000°30'714.7
2019-Feb-23 02:30N 49°56' W 000°31'715.0
2019-Feb-23 02:01N 50°03' W 000°35'714.7
2019-Feb-23 01:30N 50°10' W 000°39'815.1
2019-Feb-23 01:00N 50°17' W 000°43'714.6
2019-Feb-23 00:31N 50°23' W 000°48'714.6
2019-Feb-23 00:00N 50°30' W 000°52'714.5
2019-Feb-22 23:31N 50°37' W 000°56'713.2
2019-Feb-22 23:00N 50°43' W 000°60'612.3
2019-Feb-22 22:30N 50°47' W 001°07'1 2.8
2019-Feb-22 22:00N 50°49' W 001°06'0 0.0
2019-Feb-22 21:30N 50°49' W 001°06'0 0.0
2019-Feb-22 21:00N 50°49' W 001°06'0 0.0
2019-Feb-22 20:31N 50°49' W 001°06'0 0.0
2019-Feb-22 20:01N 50°49' W 001°06'0 0.0
2019-Feb-22 19:30N 50°49' W 001°06'2 3.5
2019-Feb-22 19:01N 50°47' W 001°06'510.5
2019-Feb-22 18:31N 50°43' W 001°00'816.3
2019-Feb-22 18:01N 50°35' W 000°56'917.3
2019-Feb-22 17:30N 50°27' W 000°51'816.3
2019-Feb-22 17:00N 50°20' W 000°48'816.8
2019-Feb-22 16:31N 50°12' W 000°43'917.2
2019-Feb-22 16:01N 50°04' W 000°39'917.5
2019-Feb-22 15:31N 49°55' W 000°34'917.7
2019-Feb-22 15:01N 49°47' W 000°29'917.5
2019-Feb-22 14:30N 49°39' W 000°24'917.3
2019-Feb-22 14:00N 49°31' W 000°19'917.1
2019-Feb-22 13:31N 49°23' W 000°16'510.7
2019-Feb-22 13:00N 49°17' W 000°15'0 0.0
2019-Feb-22 12:30N 49°17' W 000°15'0 0.0
2019-Feb-22 12:00N 49°17' W 000°15'0 0.0
2019-Feb-22 11:30N 49°17' W 000°15'0 0.0
2019-Feb-22 11:00N 49°17' W 000°15'0 0.0
2019-Feb-22 10:30N 49°17' W 000°15'0 0.0
2019-Feb-22 10:00N 49°17' W 000°15'0 0.0
2019-Feb-22 09:30N 49°17' W 000°15'0 0.0
2019-Feb-22 09:00N 49°17' W 000°15'0 0.0
2019-Feb-22 08:30N 49°17' W 000°15'0 0.0
2019-Feb-22 08:00N 49°17' W 000°15'0 0.0
2019-Feb-22 07:30N 49°17' W 000°15'0 0.0
2019-Feb-22 07:00N 49°17' W 000°15'0 0.0
2019-Feb-22 06:30N 49°17' W 000°15'1 2.3
2019-Feb-22 06:00N 49°18' W 000°15'713.7
2019-Feb-22 05:30N 49°25' W 000°16'713.9
2019-Feb-22 05:00N 49°32' W 000°20'510.5
2019-Feb-22 04:30N 49°37' W 000°22'510.5
2019-Feb-22 04:00N 49°42' W 000°24'713.8
2019-Feb-22 03:31N 49°48' W 000°28'714.3
2019-Feb-22 03:01N 49°55' W 000°32'714.5
2019-Feb-22 02:31N 50°02' W 000°35'714.8
2019-Feb-22 02:01N 50°09' W 000°38'815.0
2019-Feb-22 01:30N 50°16' W 000°42'815.2
2019-Feb-22 01:01N 50°23' W 000°47'815.5
2019-Feb-22 00:31N 50°30' W 000°52'815.2
2019-Feb-22 00:01N 50°37' W 000°57'713.6
2019-Feb-21 23:31N 50°43' W 001°01'611.4
2019-Feb-21 23:00N 50°48' W 001°07'1 2.1
2019-Feb-21 22:30N 50°49' W 001°06'0 0.0
2019-Feb-21 22:00N 50°49' W 001°06'0 0.0
2019-Feb-21 21:30N 50°49' W 001°06'0 0.7
2019-Feb-21 21:00N 50°49' W 001°06'510.8
2019-Feb-21 20:30N 50°44' W 001°03'816.5
2019-Feb-21 20:00N 50°36' W 000°57'918.3
2019-Feb-21 19:30N 50°28' W 000°51'1019.2
2019-Feb-21 19:00N 50°19' W 000°48'1019.3
2019-Feb-21 18:30N 50°10' W 000°42'1019.6
2019-Feb-21 18:00N 50°01' W 000°36'1019.5
2019-Feb-21 17:30N 49°51' W 000°33'1019.7
2019-Feb-21 17:00N 49°42' W 000°28'1019.8
2019-Feb-21 16:30N 49°33' W 000°22'1019.9
2019-Feb-21 16:00N 49°24' W 000°16'612.5
2019-Feb-21 15:31N 49°17' W 000°15'0 0.0
2019-Feb-21 15:00N 49°17' W 000°15'0 0.0
2019-Feb-21 14:31N 49°17' W 000°15'0 0.0
2019-Feb-21 14:01N 49°17' W 000°15'2 5.0
2019-Feb-21 13:31N 49°20' W 000°14'917.7
2019-Feb-21 13:01N 49°28' W 000°19'918.7
2019-Feb-21 12:31N 49°37' W 000°23'918.8
2019-Feb-21 12:00N 49°46' W 000°28'919.1
2019-Feb-21 11:31N 49°55' W 000°32'1019.1
2019-Feb-21 11:01N 50°04' W 000°36'1019.0
2019-Feb-21 10:30N 50°13' W 000°41'918.6
2019-Feb-21 10:01N 50°22' W 000°46'918.8
2019-Feb-21 09:31N 50°31' W 000°52'918.8
2019-Feb-21 09:01N 50°39' W 000°58'817.0
2019-Feb-21 08:31N 50°46' W 001°06'2 4.9
2019-Feb-21 08:00N 50°49' W 001°06'0 0.0
2019-Feb-21 07:31N 50°49' W 001°06'0 0.0
2019-Feb-21 07:01N 50°49' W 001°06'1 1.4
2019-Feb-21 06:31N 50°48' W 001°07'510.7
2019-Feb-21 06:00N 50°44' W 001°03'611.7
2019-Feb-21 05:30N 50°39' W 000°58'611.6
2019-Feb-21 05:01N 50°34' W 000°53'611.7
2019-Feb-21 04:31N 50°29' W 000°49'611.6
2019-Feb-21 04:00N 50°24' W 000°43'6 8.8
2019-Feb-21 03:20N 50°18' W 000°45'411.8
2019-Feb-21 03:00N 50°15' W 000°42'612.1
2019-Feb-21 02:31N 50°09' W 000°38'612.2
2019-Feb-21 02:01N 50°04' W 000°34'612.3
2019-Feb-21 01:31N 49°58' W 000°30'612.1
2019-Feb-21 01:01N 49°53' W 000°26'612.1
2019-Feb-21 00:30N 49°47' W 000°23'611.9
2019-Feb-21 00:01N 49°41' W 000°22'611.8
2019-Feb-20 23:31N 49°35' W 000°20'611.8
2019-Feb-20 23:00N 49°29' W 000°18'611.7
2019-Feb-20 22:31N 49°24' W 000°16'611.8
2019-Feb-20 22:01N 49°18' W 000°15'1 1.3
2019-Feb-20 21:30N 49°17' W 000°15'0 0.0
2019-Feb-20 21:00N 49°17' W 000°15'0 0.0
2019-Feb-20 20:30N 49°17' W 000°15'2 5.0
2019-Feb-20 20:01N 49°20' W 000°14'917.2
2019-Feb-20 19:30N 49°28' W 000°17'917.5
2019-Feb-20 19:01N 49°36' W 000°22'1019.9
2019-Feb-20 18:30N 49°46' W 000°28'1019.5
2019-Feb-20 18:01N 49°54' W 000°34'918.9
2019-Feb-20 17:31N 50°03' W 000°40'918.6
2019-Feb-20 17:01N 50°12' W 000°44'918.9
2019-Feb-20 16:31N 50°21' W 000°46'917.9
2019-Feb-20 16:01N 50°29' W 000°52'918.8
2019-Feb-20 15:31N 50°38' W 000°58'918.7
2019-Feb-20 15:01N 50°46' W 001°05'3 5.2
2019-Feb-20 14:30N 50°49' W 001°06'0 0.0
2019-Feb-20 14:00N 50°49' W 001°06'0 0.0
2019-Feb-20 13:30N 50°49' W 001°06'0 0.1
2019-Feb-20 13:00N 50°49' W 001°06'4 7.4
2019-Feb-20 12:30N 50°45' W 001°05'918.3
2019-Feb-20 12:00N 50°37' W 000°57'1019.3
2019-Feb-20 11:30N 50°29' W 000°49'1019.1
2019-Feb-20 11:00N 50°20' W 000°43'1019.0
2019-Feb-20 10:30N 50°12' W 000°37'918.8
2019-Feb-20 10:00N 50°03' W 000°32'1019.4
2019-Feb-20 09:30N 49°54' W 000°28'1020.6
2019-Feb-20 09:00N 49°44' W 000°22'1020.5
2019-Feb-20 08:30N 49°34' W 000°19'1019.8
2019-Feb-20 08:00N 49°24' W 000°16'713.9
2019-Feb-20 07:30N 49°17' W 000°15'0 0.0
2019-Feb-20 07:00N 49°17' W 000°15'0 0.0
2019-Feb-20 06:30N 49°17' W 000°15'0 0.0
2019-Feb-20 06:00N 49°17' W 000°15'0 0.3
2019-Feb-20 05:30N 49°17' W 000°15'4 8.9
2019-Feb-20 05:00N 49°22' W 000°15'917.2
2019-Feb-20 04:30N 49°30' W 000°19'918.2
2019-Feb-20 04:00N 49°39' W 000°23'1817.8
2019-Feb-20 03:00N 49°55' W 000°33'815.7
2019-Feb-20 02:30N 50°03' W 000°37'815.1
2019-Feb-20 02:00N 50°10' W 000°41'815.2
2019-Feb-20 01:30N 50°17' W 000°44'815.6
2019-Feb-20 01:00N 50°24' W 000°49'815.3
2019-Feb-20 00:30N 50°31' W 000°53'815.3
2019-Feb-20 00:00N 50°38' W 000°58'714.3
2019-Feb-19 23:31N 50°44' W 001°04'5 9.1
2019-Feb-19 23:00N 50°49' W 001°06'0 0.4
2019-Feb-19 22:30N 50°49' W 001°06'0 0.0
2019-Feb-19 22:00N 50°49' W 001°06'0 0.0
2019-Feb-19 21:30N 50°49' W 001°06'0 0.9
2019-Feb-19 21:00N 50°49' W 001°07'611.3
2019-Feb-19 20:31N 50°44' W 001°03'918.1
2019-Feb-19 20:00N 50°35' W 000°56'918.0
2019-Feb-19 19:30N 50°27' W 000°50'1118.8
2019-Feb-19 18:56N 50°17' W 000°45'819.5
2019-Feb-19 18:30N 50°09' W 000°40'1020.2
2019-Feb-19 18:01N 49°60' W 000°34'1020.3
2019-Feb-19 17:31N 49°50' W 000°30'1020.3
2019-Feb-19 17:01N 49°40' W 000°26'1020.6
2019-Feb-19 16:31N 49°31' W 000°20'1020.5
2019-Feb-19 16:01N 49°21' W 000°15'4 7.4
2019-Feb-19 15:30N 49°17' W 000°15'0 0.0
2019-Feb-19 15:00N 49°17' W 000°15'0 0.0
2019-Feb-19 14:30N 49°17' W 000°15'0 0.0
2019-Feb-19 14:00N 49°17' W 000°15'3 6.1
2019-Feb-19 13:31N 49°20' W 000°14'1019.8
2019-Feb-19 13:01N 49°30' W 000°17'1020.4
2019-Feb-19 12:31N 49°40' W 000°21'1020.4
2019-Feb-19 12:01N 49°50' W 000°27'1020.6
2019-Feb-19 11:31N 49°59' W 000°33'1020.8
2019-Feb-19 11:01N 50°08' W 000°40'1020.2
2019-Feb-19 10:31N 50°17' W 000°47'1019.2
2019-Feb-19 10:01N 50°26' W 000°54'918.6
2019-Feb-19 09:31N 50°35' W 000°57'918.0
2019-Feb-19 09:01N 50°43' W 001°03'611.6
2019-Feb-19 08:31N 50°49' W 001°07'0 0.9
2019-Feb-19 08:01N 50°49' W 001°06'0 0.0
2019-Feb-19 07:31N 50°49' W 001°06'0 0.0
2019-Feb-19 07:01N 50°49' W 001°06'0 0.1
2019-Feb-19 06:31N 50°49' W 001°06'5 9.1
2019-Feb-19 06:01N 50°44' W 001°04'713.4
2019-Feb-19 05:30N 50°39' W 000°58'815.5
2019-Feb-19 05:00N 50°32' W 000°54'815.8
2019-Feb-19 04:30N 50°24' W 000°50'815.7
2019-Feb-19 04:00N 50°17' W 000°46'815.8
2019-Feb-19 03:30N 50°09' W 000°42'815.4
2019-Feb-19 03:00N 50°02' W 000°38'816.2
2019-Feb-19 02:30N 49°54' W 000°35'713.5
2019-Feb-19 02:00N 49°47' W 000°34'3 5.7
2019-Feb-19 01:30N 49°47' W 000°38'5 9.5
2019-Feb-19 01:00N 49°50' W 000°32'611.5
2019-Feb-19 00:30N 49°44' W 000°29'612.0
2019-Feb-19 00:00N 49°39' W 000°26'611.9
2019-Feb-18 23:30N 49°33' W 000°22'611.6
2019-Feb-18 23:00N 49°28' W 000°19'611.6
2019-Feb-18 22:30N 49°22' W 000°15'510.2
2019-Feb-18 22:00N 49°17' W 000°15'0 0.1
2019-Feb-18 21:30N 49°17' W 000°15'0 0.0
2019-Feb-18 21:00N 49°17' W 000°15'0 0.0
2019-Feb-18 20:30N 49°17' W 000°15'3 6.2
2019-Feb-18 20:00N 49°20' W 000°14'918.1
2019-Feb-18 19:30N 49°29' W 000°19'917.8
2019-Feb-18 19:00N 49°37' W 000°24'918.8
2019-Feb-18 18:30N 49°46' W 000°30'918.9
2019-Feb-18 18:00N 49°55' W 000°35'918.4
2019-Feb-18 17:30N 50°04' W 000°39'1019.1
2019-Feb-18 17:00N 50°13' W 000°44'1019.0
2019-Feb-18 16:30N 50°22' W 000°49'919.0
2019-Feb-18 16:01N 50°30' W 000°54'918.2
2019-Feb-18 15:30N 50°39' W 000°58'816.0
2019-Feb-18 15:00N 50°46' W 001°05'3 6.1
2019-Feb-18 14:30N 50°49' W 001°06'0 0.0
2019-Feb-18 14:00N 50°49' W 001°06'0 0.0
2019-Feb-18 13:30N 50°49' W 001°06'1 1.1
2019-Feb-18 13:00N 50°49' W 001°07'612.6
2019-Feb-18 12:30N 50°43' W 001°02'918.0
2019-Feb-18 12:00N 50°35' W 000°56'1019.8
2019-Feb-18 11:30N 50°26' W 000°47'1019.8
2019-Feb-18 11:00N 50°17' W 000°42'1019.8
2019-Feb-18 10:30N 50°08' W 000°36'1019.5
2019-Feb-18 10:00N 49°59' W 000°31'1019.5
2019-Feb-18 09:30N 49°49' W 000°27'1019.6
2019-Feb-18 09:00N 49°40' W 000°23'1019.7
2019-Feb-18 08:30N 49°31' W 000°19'1019.4
2019-Feb-18 08:00N 49°21' W 000°15'4 7.8
2019-Feb-18 07:30N 49°17' W 000°15'0 0.0
2019-Feb-18 07:00N 49°17' W 000°15'0 0.0
2019-Feb-18 06:30N 49°17' W 000°15'0 0.0
2019-Feb-18 06:00N 49°17' W 000°15'0 0.2
2019-Feb-18 05:31N 49°17' W 000°15'815.2
2019-Feb-18 05:00N 49°25' W 000°14'815.3
2019-Feb-18 04:30N 49°32' W 000°18'714.9
2019-Feb-18 04:00N 49°39' W 000°24'815.0
2019-Feb-18 03:30N 49°45' W 000°28'714.7
2019-Feb-18 03:00N 49°52' W 000°32'815.0
2019-Feb-18 02:30N 49°59' W 000°37'815.2
2019-Feb-18 02:00N 50°06' W 000°40'815.1
2019-Feb-18 01:30N 50°14' W 000°45'815.3
2019-Feb-18 01:00N 50°21' W 000°49'815.4
2019-Feb-18 00:30N 50°28' W 000°53'714.9
2019-Feb-18 00:00N 50°35' W 000°57'715.0
2019-Feb-17 23:30N 50°42' W 001°01'713.0
2019-Feb-17 23:00N 50°47' W 001°07'1 2.7
2019-Feb-17 22:30N 50°49' W 001°06'0 0.0
2019-Feb-17 22:00N 50°49' W 001°06'0 0.0
2019-Feb-17 21:30N 50°49' W 001°06'1 1.6
2019-Feb-17 21:00N 50°48' W 001°07'511.0
2019-Feb-17 20:31N 50°44' W 001°02'917.3
2019-Feb-17 20:00N 50°36' W 000°57'917.6
2019-Feb-17 19:30N 50°27' W 000°52'1120.0
2019-Feb-17 18:56N 50°16' W 000°49'819.5
2019-Feb-17 18:30N 50°08' W 000°45'1019.3
2019-Feb-17 18:00N 49°59' W 000°39'1019.2
2019-Feb-17 17:30N 49°51' W 000°32'1019.4
2019-Feb-17 17:00N 49°42' W 000°26'1020.1
2019-Feb-17 16:30N 49°33' W 000°20'1020.1
2019-Feb-17 16:00N 49°23' W 000°16'611.8
2019-Feb-17 15:30N 49°17' W 000°15'0 0.1
2019-Feb-17 15:00N 49°17' W 000°15'0 0.0
2019-Feb-17 14:30N 49°17' W 000°15'0 0.0
2019-Feb-17 14:00N 49°17' W 000°15'3 5.8
2019-Feb-17 13:30N 49°20' W 000°14'917.8
2019-Feb-17 13:00N 49°29' W 000°16'917.7
2019-Feb-17 12:30N 49°37' W 000°22'918.3
2019-Feb-17 12:00N 49°45' W 000°27'1019.7
2019-Feb-17 11:30N 49°54' W 000°34'1019.8
2019-Feb-17 11:00N 50°04' W 000°40'1020.0
2019-Feb-17 10:30N 50°13' W 000°45'1020.3
2019-Feb-17 10:00N 50°22' W 000°51'1020.3
2019-Feb-17 09:30N 50°32' W 000°57'1020.2
2019-Feb-17 09:01N 50°41' W 001°01'714.7
2019-Feb-17 08:30N 50°48' W 001°07'1 2.0
2019-Feb-17 08:00N 50°49' W 001°06'0 0.0
2019-Feb-17 07:30N 50°49' W 001°06'0 0.0
2019-Feb-17 07:00N 50°49' W 001°06'0 0.1
2019-Feb-17 06:30N 50°49' W 001°06'4 8.9
2019-Feb-17 06:01N 50°44' W 001°04'815.5
2019-Feb-17 05:30N 50°38' W 000°57'714.9
2019-Feb-17 05:00N 50°31' W 000°52'510.9
2019-Feb-17 04:30N 50°26' W 000°48'611.5
2019-Feb-17 04:00N 50°21' W 000°44'611.6
2019-Feb-17 03:30N 50°16' W 000°40'611.6
2019-Feb-17 03:00N 50°11' W 000°37'611.8
2019-Feb-17 02:30N 50°05' W 000°38'611.6
2019-Feb-17 02:00N 49°59' W 000°36'612.0
2019-Feb-17 01:30N 49°54' W 000°33'612.2
2019-Feb-17 01:00N 49°48' W 000°30'612.3
2019-Feb-17 00:30N 49°42' W 000°27'612.1
2019-Feb-17 00:00N 49°36' W 000°23'612.3
2019-Feb-16 23:30N 49°31' W 000°20'612.4
2019-Feb-16 23:00N 49°25' W 000°16'611.6
2019-Feb-16 22:30N 49°19' W 000°15'2 3.9
2019-Feb-16 22:00N 49°17' W 000°15'0 0.0
2019-Feb-16 21:30N 49°17' W 000°15'0 0.0
2019-Feb-16 21:00N 49°17' W 000°15'0 0.0
2019-Feb-16 20:30N 49°17' W 000°15'3 6.7
2019-Feb-16 20:00N 49°21' W 000°14'919.0
2019-Feb-16 19:30N 49°30' W 000°19'918.7
2019-Feb-16 19:00N 49°38' W 000°24'918.2
2019-Feb-16 18:30N 49°47' W 000°29'918.6
2019-Feb-16 18:00N 49°56' W 000°34'1020.8
2019-Feb-16 17:30N 50°06' W 000°40'1120.8
2019-Feb-16 16:58N 50°16' W 000°45'920.4
2019-Feb-16 16:30N 50°25' W 000°49'1020.6
2019-Feb-16 16:00N 50°35' W 000°55'919.0
2019-Feb-16 15:30N 50°43' W 001°01'612.2
2019-Feb-16 15:00N 50°49' W 001°06'0 0.6
2019-Feb-16 14:30N 50°49' W 001°06'0 0.0
2019-Feb-16 14:00N 50°49' W 001°06'0 0.0
2019-Feb-16 13:30N 50°49' W 001°06'0 0.7
2019-Feb-16 13:00N 50°49' W 001°06'611.3
2019-Feb-16 12:30N 50°44' W 001°02'816.1
2019-Feb-16 12:00N 50°36' W 000°57'1019.4
2019-Feb-16 11:30N 50°27' W 000°51'1019.6
2019-Feb-16 10:59N 50°18' W 000°46'1020.2
2019-Feb-16 10:30N 50°09' W 000°41'1020.5
2019-Feb-16 10:00N 49°59' W 000°35'1020.4
2019-Feb-16 09:30N 49°50' W 000°29'1020.3
2019-Feb-16 09:00N 49°40' W 000°23'1019.7
2019-Feb-16 08:30N 49°31' W 000°18'1019.5
2019-Feb-16 08:00N 49°21' W 000°14'4 8.2
2019-Feb-16 07:30N 49°17' W 000°15'0 0.0
2019-Feb-16 07:00N 49°17' W 000°15'0 0.0
2019-Feb-16 06:30N 49°17' W 000°15'0 0.0
2019-Feb-16 06:00N 49°17' W 000°15'0 0.2
2019-Feb-16 05:30N 49°17' W 000°15'714.7
2019-Feb-16 05:01N 49°25' W 000°15'815.4
2019-Feb-16 04:30N 49°32' W 000°19'611.6
2019-Feb-16 04:00N 49°37' W 000°21'611.3
2019-Feb-16 03:31N 49°43' W 000°24'611.6
2019-Feb-16 03:00N 49°48' W 000°26'611.7
2019-Feb-16 02:30N 49°54' W 000°30'611.4
2019-Feb-16 02:01N 49°59' W 000°33'714.7
2019-Feb-16 01:30N 50°05' W 000°39'815.5
2019-Feb-16 01:01N 50°12' W 000°45'815.3
2019-Feb-16 00:30N 50°19' W 000°51'815.1
2019-Feb-16 00:00N 50°26' W 000°55'815.3
2019-Feb-15 23:31N 50°33' W 000°57'815.9
2019-Feb-15 23:01N 50°41' W 001°00'714.0
2019-Feb-15 22:30N 50°47' W 001°06'2 3.5
2019-Feb-15 22:00N 50°49' W 001°06'0 0.0
2019-Feb-15 21:30N 50°49' W 001°06'0 0.0
2019-Feb-15 21:00N 50°49' W 001°06'0 0.0
2019-Feb-15 20:30N 50°49' W 001°06'0 0.0
2019-Feb-15 20:00N 50°49' W 001°06'0 0.0
2019-Feb-15 19:30N 50°49' W 001°06'1 1.1
2019-Feb-15 19:01N 50°49' W 001°07'612.4
2019-Feb-15 18:30N 50°43' W 001°03'816.8
2019-Feb-15 18:01N 50°35' W 000°58'917.0
2019-Feb-15 17:31N 50°27' W 000°54'816.9
2019-Feb-15 17:01N 50°19' W 000°49'816.5
2019-Feb-15 16:30N 50°12' W 000°43'816.9
2019-Feb-15 16:01N 50°04' W 000°38'816.9
2019-Feb-15 15:30N 49°56' W 000°33'816.9
2019-Feb-15 15:00N 49°48' W 000°29'816.6
2019-Feb-15 14:30N 49°41' W 000°23'816.9
2019-Feb-15 14:00N 49°33' W 000°19'817.0
2019-Feb-15 13:30N 49°24' W 000°17'714.1
2019-Feb-15 13:00N 49°17' W 000°15'0 0.1
2019-Feb-15 12:30N 49°17' W 000°15'0 0.0
2019-Feb-15 12:00N 49°17' W 000°15'0 0.0
2019-Feb-15 11:30N 49°17' W 000°15'0 0.0
2019-Feb-15 11:00N 49°17' W 000°15'0 0.0
2019-Feb-15 10:30N 49°17' W 000°15'0 0.0
2019-Feb-15 10:00N 49°17' W 000°15'0 0.0
2019-Feb-15 09:30N 49°17' W 000°15'0 0.0
2019-Feb-15 09:00N 49°17' W 000°15'0 0.0
2019-Feb-15 08:30N 49°17' W 000°15'0 0.0
2019-Feb-15 08:00N 49°17' W 000°15'0 0.0
2019-Feb-15 07:30N 49°17' W 000°15'0 0.0
2019-Feb-15 07:00N 49°17' W 000°15'0 0.0
2019-Feb-15 06:30N 49°17' W 000°15'3 6.8
2019-Feb-15 06:00N 49°21' W 000°14'815.9
2019-Feb-15 05:31N 49°28' W 000°19'815.5
2019-Feb-15 05:01N 49°35' W 000°25'815.7
2019-Feb-15 04:31N 49°43' W 000°26'815.7
2019-Feb-15 04:00N 49°50' W 000°31'713.9
2019-Feb-15 03:30N 49°56' W 000°35'611.7
2019-Feb-15 03:00N 50°02' W 000°38'611.7
2019-Feb-15 02:30N 50°07' W 000°41'611.3
2019-Feb-15 02:00N 50°13' W 000°44'611.2
2019-Feb-15 01:30N 50°18' W 000°45'611.2
2019-Feb-15 01:00N 50°23' W 000°49'613.0
2019-Feb-15 00:30N 50°29' W 000°53'815.9
2019-Feb-15 00:00N 50°37' W 000°57'714.3
2019-Feb-14 23:30N 50°43' W 001°01'611.4
2019-Feb-14 23:01N 50°48' W 001°07'1 2.2
2019-Feb-14 22:30N 50°49' W 001°06'0 0.0
2019-Feb-14 22:01N 50°49' W 001°06'0 0.0
2019-Feb-14 21:31N 50°49' W 001°06'0 0.1
2019-Feb-14 21:00N 50°49' W 001°06'3 5.7
2019-Feb-14 20:30N 50°46' W 001°05'917.1
2019-Feb-14 20:00N 50°38' W 000°59'918.3
2019-Feb-14 19:31N 50°30' W 000°54'918.6
2019-Feb-14 19:01N 50°21' W 000°49'1020.2
2019-Feb-14 18:30N 50°11' W 000°44'1020.5
2019-Feb-14 18:01N 50°02' W 000°39'1020.8
2019-Feb-14 17:31N 49°52' W 000°33'1020.6
2019-Feb-14 17:00N 49°42' W 000°27'1020.7
2019-Feb-14 16:30N 49°33' W 000°21'1020.6
2019-Feb-14 16:01N 49°23' W 000°16'611.6
2019-Feb-14 15:31N 49°17' W 000°15'0 0.0
2019-Feb-14 15:00N 49°17' W 000°15'0 0.0
2019-Feb-14 14:31N 49°17' W 000°15'0 0.0
2019-Feb-14 14:01N 49°17' W 000°15'4 8.1
2019-Feb-14 13:30N 49°21' W 000°14'1020.0
2019-Feb-14 13:00N 49°31' W 000°18'1019.1
2019-Feb-14 12:30N 49°40' W 000°24'1019.4
2019-Feb-14 12:00N 49°48' W 000°31'1019.2
2019-Feb-14 11:30N 49°57' W 000°37'919.0
2019-Feb-14 11:00N 50°06' W 000°42'1019.7
2019-Feb-14 10:30N 50°15' W 000°48'1021.0
2019-Feb-14 10:00N 50°25' W 000°53'1020.7
2019-Feb-14 09:30N 50°35' W 000°57'918.3
2019-Feb-14 09:00N 50°43' W 001°03'611.0
2019-Feb-14 08:30N 50°49' W 001°06'0 0.0
2019-Feb-14 08:01N 50°49' W 001°06'0 0.0
2019-Feb-14 07:30N 50°49' W 001°06'0 0.1
2019-Feb-14 07:00N 50°49' W 001°06'3 5.3
2019-Feb-14 06:30N 50°46' W 001°05'3 6.0
2019-Feb-14 06:00N 50°43' W 001°03'714.2
2019-Feb-14 05:30N 50°37' W 000°59'611.7
2019-Feb-14 05:00N 50°32' W 000°55'611.5
2019-Feb-14 04:30N 50°27' W 000°49'611.6
2019-Feb-14 04:00N 50°22' W 000°45'1211.6
2019-Feb-14 03:00N 50°11' W 000°40'611.9
2019-Feb-14 02:30N 50°05' W 000°39'611.4
2019-Feb-14 02:00N 49°59' W 000°36'611.4
2019-Feb-14 01:30N 49°54' W 000°33'611.3
2019-Feb-14 01:00N 49°49' W 000°30'611.4
2019-Feb-14 00:30N 49°43' W 000°27'  

Dump ship's entire track history